createdAt,value
2023-08-14T00:00:21.370Z,19.82
2023-08-14T00:01:22.990Z,19.82
2023-08-14T00:02:24.932Z,19.78
2023-08-14T00:03:26.750Z,19.87
2023-08-14T00:04:28.427Z,19.82
2023-08-14T00:05:30.086Z,19.80
2023-08-14T00:06:31.653Z,19.71
2023-08-14T00:07:33.309Z,19.72
2023-08-14T00:08:34.929Z,19.86
2023-08-14T00:09:36.557Z,19.70
2023-08-14T00:10:38.161Z,19.73
2023-08-14T00:11:39.808Z,19.69
2023-08-14T00:12:42.020Z,19.49
2023-08-14T00:13:55.429Z,19.56
2023-08-14T00:14:57.052Z,19.63
2023-08-14T00:15:58.676Z,19.56
2023-08-14T00:17:01.138Z,19.52
2023-08-14T00:18:02.808Z,19.57
2023-08-14T00:19:04.660Z,19.36
2023-08-14T00:20:06.751Z,19.44
2023-08-14T00:21:08.326Z,19.57
2023-08-14T00:22:09.916Z,19.53
2023-08-14T00:23:11.626Z,19.55
2023-08-14T00:24:13.695Z,19.50
2023-08-14T00:25:15.306Z,19.45
2023-08-14T00:26:18.472Z,19.46
2023-08-14T00:27:20.067Z,19.38
2023-08-14T00:28:21.648Z,19.34
2023-08-14T00:29:23.221Z,19.31
2023-08-14T00:30:25.042Z,19.44
2023-08-14T00:31:26.622Z,19.46
2023-08-14T00:32:28.263Z,19.41
2023-08-14T00:33:30.078Z,19.43
2023-08-14T00:34:31.704Z,19.48
2023-08-14T00:35:33.358Z,19.54
2023-08-14T00:36:35.013Z,19.50
2023-08-14T00:37:46.303Z,19.54
2023-08-14T00:38:48.005Z,19.37
2023-08-14T00:39:49.817Z,19.34
2023-08-14T00:40:53.954Z,19.27
2023-08-14T00:41:55.586Z,19.32
2023-08-14T00:42:57.163Z,19.34
2023-08-14T00:43:58.737Z,19.33
2023-08-14T00:45:01.270Z,19.23
2023-08-14T00:46:03.729Z,19.28
2023-08-14T00:47:06.046Z,19.24
2023-08-14T00:48:07.628Z,19.11
2023-08-14T00:49:09.391Z,19.19
2023-08-14T00:50:11.728Z,19.23
2023-08-14T00:51:13.407Z,19.26
2023-08-14T00:52:15.310Z,19.27
2023-08-14T00:53:18.736Z,19.19
2023-08-14T00:54:20.338Z,19.26
2023-08-14T00:55:23.728Z,19.06
2023-08-14T00:56:25.652Z,19.10
2023-08-14T00:57:27.941Z,19.18
2023-08-14T00:58:29.457Z,19.23
2023-08-14T00:59:33.316Z,19.20
2023-08-14T01:00:36.694Z,19.21
2023-08-14T01:01:39.277Z,19.26
2023-08-14T01:02:41.922Z,19.35
2023-08-14T01:03:43.703Z,19.38
2023-08-14T01:04:45.508Z,19.20
2023-08-14T01:05:47.180Z,19.20
2023-08-14T01:06:49.088Z,19.16
2023-08-14T01:07:50.780Z,19.19
2023-08-14T01:08:52.853Z,19.19
2023-08-14T01:09:55.163Z,19.23
2023-08-14T01:11:02.606Z,19.18
2023-08-14T01:12:44.211Z,19.23
2023-08-14T01:13:57.459Z,19.27
2023-08-14T01:15:03.331Z,19.35
2023-08-14T01:16:11.236Z,19.34
2023-08-14T01:17:15.296Z,19.30
2023-08-14T01:18:18.412Z,19.31
2023-08-14T01:19:27.326Z,19.29
2023-08-14T01:20:32.415Z,19.43
2023-08-14T01:21:49.099Z,19.46
2023-08-14T01:23:22.583Z,19.36
2023-08-14T01:24:39.144Z,19.36
2023-08-14T01:25:41.629Z,19.28
2023-08-14T01:26:43.464Z,19.16
2023-08-14T01:27:45.421Z,18.90
2023-08-14T01:28:47.136Z,18.91
2023-08-14T01:29:56.059Z,18.83
2023-08-14T01:30:58.139Z,18.81
2023-08-14T01:31:59.814Z,18.68
2023-08-14T01:33:02.049Z,18.74
2023-08-14T01:34:04.258Z,18.84
2023-08-14T01:35:06.463Z,18.78
2023-08-14T01:36:23.365Z,18.90
2023-08-14T01:37:42.084Z,18.78
2023-08-14T01:38:49.994Z,18.84
2023-08-14T01:39:54.718Z,18.77
2023-08-14T01:41:22.584Z,18.76
2023-08-14T01:42:31.337Z,18.55
2023-08-14T01:43:36.032Z,18.44
2023-08-14T01:44:40.957Z,18.56
2023-08-14T01:45:42.715Z,18.71
2023-08-14T01:46:45.040Z,18.73
2023-08-14T01:47:46.546Z,18.63
2023-08-14T01:48:50.574Z,18.56
2023-08-14T01:49:53.558Z,18.75
2023-08-14T01:50:56.520Z,18.51
2023-08-14T01:51:59.126Z,18.61
2023-08-14T01:53:02.315Z,18.55
2023-08-14T01:54:04.162Z,18.51
2023-08-14T01:55:06.256Z,18.72
2023-08-14T01:56:07.895Z,18.79
2023-08-14T01:57:09.569Z,18.88
2023-08-14T01:58:11.286Z,18.95
2023-08-14T01:59:12.942Z,18.93
2023-08-14T02:00:15.014Z,18.90
2023-08-14T02:01:18.832Z,18.97
2023-08-14T02:02:20.766Z,19.02
2023-08-14T02:03:22.876Z,18.99
2023-08-14T02:04:24.526Z,18.88
2023-08-14T02:05:26.072Z,18.73
2023-08-14T02:06:27.676Z,18.74
2023-08-14T02:07:29.311Z,18.63
2023-08-14T02:08:30.876Z,18.67
2023-08-14T02:09:35.782Z,18.69
2023-08-14T02:10:37.372Z,18.78
2023-08-14T02:11:40.523Z,18.80
2023-08-14T02:12:42.288Z,18.81
2023-08-14T02:13:43.867Z,18.85
2023-08-14T02:14:45.439Z,18.95
2023-08-14T02:15:47.632Z,18.93
2023-08-14T02:16:49.850Z,18.95
2023-08-14T02:17:51.794Z,18.95
2023-08-14T02:18:53.676Z,18.94
2023-08-14T02:19:56.109Z,18.96
2023-08-14T02:20:57.946Z,18.97
2023-08-14T02:21:59.592Z,19.04
2023-08-14T02:23:01.234Z,19.10
2023-08-14T02:24:02.825Z,19.05
2023-08-14T02:25:06.145Z,19.04
2023-08-14T02:26:07.778Z,19.06
2023-08-14T02:27:09.387Z,19.16
2023-08-14T02:28:11.888Z,19.20
2023-08-14T02:29:13.504Z,19.03
2023-08-14T02:30:15.089Z,18.98
2023-08-14T02:31:16.707Z,19.00
2023-08-14T02:32:18.566Z,19.02
2023-08-14T02:33:23.092Z,19.02
2023-08-14T02:34:47.929Z,19.13
2023-08-14T02:35:49.531Z,19.16
2023-08-14T02:36:51.101Z,19.19
2023-08-14T02:37:52.817Z,19.08
2023-08-14T02:38:55.248Z,19.06
2023-08-14T02:39:56.828Z,19.04
2023-08-14T02:40:58.488Z,18.99
2023-08-14T02:42:00.089Z,19.01
2023-08-14T02:43:03.634Z,18.94
2023-08-14T02:44:05.458Z,18.78
2023-08-14T02:45:07.782Z,18.84
2023-08-14T02:46:09.443Z,18.86
2023-08-14T02:47:11.190Z,18.90
2023-08-14T02:48:12.860Z,18.80
2023-08-14T02:49:14.437Z,18.84
2023-08-14T02:50:16.146Z,18.71
2023-08-14T02:51:18.085Z,18.70
2023-08-14T02:52:19.947Z,18.70
2023-08-14T02:53:21.689Z,18.66
2023-08-14T02:54:23.346Z,18.60
2023-08-14T02:55:25.948Z,18.57
2023-08-14T02:56:27.591Z,18.62
2023-08-14T02:57:29.178Z,18.48
2023-08-14T02:58:31.858Z,18.52
2023-08-14T02:59:35.047Z,18.47
2023-08-14T03:00:36.657Z,18.44
2023-08-14T03:01:38.386Z,18.50
2023-08-14T03:02:40.235Z,18.54
2023-08-14T03:03:41.984Z,18.42
2023-08-14T03:04:43.660Z,18.33
2023-08-14T03:05:45.717Z,18.49
2023-08-14T03:06:47.365Z,18.58
2023-08-14T03:07:48.964Z,18.56
2023-08-14T03:08:51.330Z,18.67
2023-08-14T03:09:53.219Z,18.69
2023-08-14T03:10:55.181Z,18.47
2023-08-14T03:11:56.788Z,18.52
2023-08-14T03:12:58.684Z,18.31
2023-08-14T03:14:00.383Z,18.23
2023-08-14T03:15:02.091Z,18.08
2023-08-14T03:16:03.934Z,18.26
2023-08-14T03:17:05.580Z,18.19
2023-08-14T03:18:07.362Z,18.22
2023-08-14T03:19:08.971Z,18.19
2023-08-14T03:20:11.091Z,17.88
2023-08-14T03:21:13.166Z,17.72
2023-08-14T03:22:14.766Z,17.89
2023-08-14T03:23:17.811Z,18.18
2023-08-14T03:24:19.952Z,18.26
2023-08-14T03:25:23.432Z,18.22
2023-08-14T03:26:25.080Z,18.25
2023-08-14T03:27:26.696Z,18.28
2023-08-14T03:28:28.920Z,18.35
2023-08-14T03:29:30.512Z,18.38
2023-08-14T03:30:32.128Z,18.41
2023-08-14T03:31:33.731Z,18.49
2023-08-14T03:32:36.689Z,18.42
2023-08-14T03:33:39.743Z,18.34
2023-08-14T03:34:43.778Z,18.38
2023-08-14T03:35:45.776Z,18.45
2023-08-14T03:36:49.735Z,18.55
2023-08-14T03:37:52.894Z,18.63
2023-08-14T03:38:54.652Z,18.52
2023-08-14T03:39:56.406Z,18.52
2023-08-14T03:40:58.661Z,18.50
2023-08-14T03:42:01.837Z,18.46
2023-08-14T03:43:03.603Z,18.58
2023-08-14T03:44:05.504Z,18.63
2023-08-14T03:45:07.902Z,18.60
2023-08-14T03:46:10.094Z,18.52
2023-08-14T03:47:11.726Z,18.56
2023-08-14T03:48:13.397Z,18.47
2023-08-14T03:49:16.537Z,18.32
2023-08-14T03:50:18.130Z,18.46
2023-08-14T03:51:19.739Z,18.52
2023-08-14T03:52:21.313Z,18.30
2023-08-14T03:53:23.214Z,18.25
2023-08-14T03:54:24.852Z,18.11
2023-08-14T03:55:26.406Z,18.15
2023-08-14T03:56:27.984Z,18.35
2023-08-14T03:57:31.917Z,18.36
2023-08-14T03:58:33.487Z,18.52
2023-08-14T03:59:35.093Z,18.46
2023-08-14T04:00:37.014Z,18.36
2023-08-14T04:01:39.307Z,18.40
2023-08-14T04:02:41.024Z,18.38
2023-08-14T04:03:42.791Z,18.16
2023-08-14T04:04:44.495Z,18.42
2023-08-14T04:05:48.570Z,18.62
2023-08-14T04:06:51.126Z,18.42
2023-08-14T04:07:52.863Z,18.27
2023-08-14T04:08:54.508Z,18.13
2023-08-14T04:09:57.306Z,18.11
2023-08-14T04:11:00.520Z,18.09
2023-08-14T04:12:04.425Z,18.07
2023-08-14T04:13:07.681Z,18.19
2023-08-14T04:14:11.650Z,18.28
2023-08-14T04:15:16.800Z,18.22
2023-08-14T04:16:19.923Z,18.35
2023-08-14T04:17:22.938Z,18.50
2023-08-14T04:18:24.803Z,18.58
2023-08-14T04:19:26.443Z,18.56
2023-08-14T04:20:28.081Z,18.53
2023-08-14T04:21:30.696Z,18.61
2023-08-14T04:22:33.616Z,18.68
2023-08-14T04:23:36.500Z,18.73
2023-08-14T04:24:39.537Z,18.79
2023-08-14T04:25:42.565Z,18.81
2023-08-14T04:26:45.896Z,18.91
2023-08-14T04:27:49.555Z,18.86
2023-08-14T04:28:52.583Z,18.84
2023-08-14T04:29:54.761Z,18.81
2023-08-14T04:30:56.426Z,18.82
2023-08-14T04:32:00.844Z,18.83
2023-08-14T04:33:04.553Z,18.76
2023-08-14T04:34:08.904Z,18.75
2023-08-14T04:35:13.473Z,18.92
2023-08-14T04:36:16.029Z,18.98
2023-08-14T04:37:17.656Z,18.98
2023-08-14T04:38:19.223Z,19.03
2023-08-14T04:39:23.667Z,19.10
2023-08-14T04:40:26.650Z,19.09
2023-08-14T04:41:28.576Z,19.06
2023-08-14T04:42:33.444Z,19.03
2023-08-14T04:43:35.773Z,19.12
2023-08-14T04:44:37.546Z,19.20
2023-08-14T04:45:39.281Z,19.22
2023-08-14T04:46:57.518Z,19.21
2023-08-14T04:48:01.477Z,19.23
2023-08-14T04:49:04.291Z,19.08
2023-08-14T04:50:06.751Z,19.05
2023-08-14T04:51:08.264Z,19.00
2023-08-14T04:52:09.912Z,19.09
2023-08-14T04:53:13.053Z,19.03
2023-08-14T04:54:15.772Z,18.93
2023-08-14T04:55:17.569Z,18.91
2023-08-14T04:56:19.294Z,18.81
2023-08-14T04:57:20.883Z,18.79
2023-08-14T04:58:22.521Z,18.67
2023-08-14T04:59:24.275Z,18.72
2023-08-14T05:00:27.320Z,18.78
2023-08-14T05:01:28.999Z,18.67
2023-08-14T05:02:32.749Z,18.79
2023-08-14T05:03:37.301Z,18.80
2023-08-14T05:04:39.393Z,18.94
2023-08-14T05:05:41.054Z,18.93
2023-08-14T05:06:42.723Z,19.02
2023-08-14T05:07:44.285Z,19.08
2023-08-14T05:08:45.845Z,19.06
2023-08-14T05:09:49.507Z,19.04
2023-08-14T05:10:52.307Z,19.06
2023-08-14T05:11:53.999Z,18.97
2023-08-14T05:12:56.700Z,19.08
2023-08-14T05:14:00.799Z,19.13
2023-08-14T05:15:04.721Z,18.99
2023-08-14T05:16:08.885Z,19.05
2023-08-14T05:17:12.244Z,19.12
2023-08-14T05:18:14.766Z,19.18
2023-08-14T05:19:16.430Z,19.16
2023-08-14T05:20:18.072Z,19.09
2023-08-14T05:21:20.282Z,19.19
2023-08-14T05:22:23.117Z,19.09
2023-08-14T05:23:24.695Z,19.23
2023-08-14T05:24:26.411Z,19.25
2023-08-14T05:25:28.313Z,19.25
2023-08-14T05:26:29.997Z,19.11
2023-08-14T05:27:37.873Z,19.04
2023-08-14T05:28:39.509Z,19.05
2023-08-14T05:29:41.110Z,19.23
2023-08-14T05:30:46.632Z,18.98
2023-08-14T05:31:48.398Z,18.81
2023-08-14T05:32:50.048Z,18.90
2023-08-14T05:33:51.654Z,18.86
2023-08-14T05:34:53.207Z,18.86
2023-08-14T05:35:55.822Z,18.92
2023-08-14T05:36:57.724Z,19.00
2023-08-14T05:38:00.365Z,18.95
2023-08-14T05:39:02.019Z,18.83
2023-08-14T05:40:05.366Z,18.95
2023-08-14T05:41:06.981Z,18.93
2023-08-14T05:42:08.539Z,19.00
2023-08-14T05:43:13.439Z,18.94
2023-08-14T05:44:15.027Z,18.96
2023-08-14T05:45:16.643Z,18.98
2023-08-14T05:46:20.100Z,18.95
2023-08-14T05:47:21.697Z,19.10
2023-08-14T05:48:23.644Z,19.20
2023-08-14T05:49:25.286Z,19.33
2023-08-14T05:50:28.210Z,19.34
2023-08-14T05:51:29.849Z,19.34
2023-08-14T05:52:31.438Z,19.39
2023-08-14T05:53:33.078Z,19.48
2023-08-14T05:54:34.669Z,19.31
2023-08-14T05:55:40.086Z,19.48
2023-08-14T05:56:41.674Z,19.51
2023-08-14T05:57:43.242Z,19.51
2023-08-14T05:58:44.847Z,19.53
2023-08-14T05:59:47.170Z,19.47
2023-08-14T06:00:48.683Z,19.63
2023-08-14T06:01:50.353Z,19.65
2023-08-14T06:02:53.194Z,19.66
2023-08-14T06:03:56.054Z,19.74
2023-08-14T06:04:57.938Z,19.70
2023-08-14T06:05:59.560Z,19.86
2023-08-14T06:07:01.849Z,19.83
2023-08-14T06:08:04.946Z,19.90
2023-08-14T06:09:07.657Z,19.86
2023-08-14T06:10:09.567Z,19.97
2023-08-14T06:11:11.121Z,20.00
2023-08-14T06:12:12.689Z,19.98
2023-08-14T06:13:14.264Z,20.05
2023-08-14T06:14:15.835Z,20.17
2023-08-14T06:15:19.845Z,20.16
2023-08-14T06:16:21.499Z,20.23
2023-08-14T06:17:23.248Z,20.27
2023-08-14T06:18:25.331Z,20.36
2023-08-14T06:19:26.955Z,20.29
2023-08-14T06:20:28.597Z,20.23
2023-08-14T06:21:30.179Z,20.37
2023-08-14T06:22:31.758Z,20.33
2023-08-14T06:23:33.424Z,20.38
2023-08-14T06:24:35.349Z,20.38
2023-08-14T06:25:36.932Z,20.39
2023-08-14T06:26:38.526Z,20.26
2023-08-14T06:27:41.373Z,20.15
2023-08-14T06:28:43.079Z,20.30
2023-08-14T06:29:44.661Z,20.48
2023-08-14T06:30:46.608Z,20.56
2023-08-14T06:31:48.330Z,20.72
2023-08-14T06:32:49.987Z,20.69
2023-08-14T06:33:52.531Z,20.86
2023-08-14T06:34:54.659Z,20.97
2023-08-14T06:35:56.518Z,21.11
2023-08-14T06:36:58.375Z,21.65
2023-08-14T06:37:59.975Z,22.16
2023-08-14T06:39:01.594Z,24.01
2023-08-14T06:40:04.968Z,25.09
2023-08-14T06:41:06.588Z,25.80
2023-08-14T06:42:08.172Z,26.71
2023-08-14T06:43:09.824Z,26.88
2023-08-14T06:44:11.870Z,27.25
2023-08-14T06:45:13.512Z,27.22
2023-08-14T06:46:15.152Z,27.28
2023-08-14T06:47:16.786Z,26.80
2023-08-14T06:48:18.447Z,27.96
2023-08-14T06:49:20.152Z,28.42
2023-08-14T06:50:21.735Z,28.63
2023-08-14T06:51:23.386Z,28.68
2023-08-14T06:52:25.170Z,29.50
2023-08-14T06:53:26.844Z,29.95
2023-08-14T06:54:28.439Z,29.47
2023-08-14T06:55:30.019Z,29.17
2023-08-14T06:56:31.746Z,28.76
2023-08-14T06:57:33.484Z,29.54
2023-08-14T06:58:35.279Z,29.46
2023-08-14T06:59:37.104Z,29.84
2023-08-14T07:00:38.798Z,30.28
2023-08-14T07:01:40.412Z,30.26
2023-08-14T07:02:42.476Z,30.03
2023-08-14T07:03:44.111Z,30.74
2023-08-14T07:04:45.796Z,30.11
2023-08-14T07:05:47.472Z,29.79
2023-08-14T07:06:49.040Z,30.27
2023-08-14T07:07:51.271Z,30.26
2023-08-14T07:08:53.099Z,30.95
2023-08-14T07:09:54.925Z,31.49
2023-08-14T07:10:56.528Z,31.55
2023-08-14T07:11:58.088Z,31.92
2023-08-14T07:13:00.113Z,31.31
2023-08-14T07:14:01.700Z,31.38
2023-08-14T07:15:06.085Z,32.04
2023-08-14T07:16:08.124Z,31.25
2023-08-14T07:17:09.986Z,31.70
2023-08-14T07:18:11.775Z,32.33
2023-08-14T07:19:13.362Z,31.52
2023-08-14T07:20:14.974Z,31.64
2023-08-14T07:21:16.656Z,31.66
2023-08-14T07:22:18.504Z,32.37
2023-08-14T07:23:21.412Z,32.51
2023-08-14T07:24:22.992Z,32.88
2023-08-14T07:25:25.354Z,32.39
2023-08-14T07:26:27.810Z,32.29
2023-08-14T07:27:29.405Z,32.96
2023-08-14T07:28:31.259Z,32.25
2023-08-14T07:29:36.301Z,33.09
2023-08-14T07:30:38.985Z,33.95
2023-08-14T07:31:40.633Z,33.69
2023-08-14T07:32:42.197Z,33.88
2023-08-14T07:33:43.964Z,33.90
2023-08-14T07:34:45.539Z,33.70
2023-08-14T07:35:47.160Z,33.75
2023-08-14T07:36:48.806Z,33.54
2023-08-14T07:37:50.675Z,33.85
2023-08-14T07:38:52.220Z,33.88
2023-08-14T07:39:53.822Z,34.61
2023-08-14T07:40:56.101Z,34.72
2023-08-14T07:41:57.700Z,33.33
2023-08-14T07:42:59.257Z,32.32
2023-08-14T07:44:00.818Z,32.79
2023-08-14T07:45:02.438Z,33.08
2023-08-14T07:46:04.074Z,32.65
2023-08-14T07:47:05.739Z,32.13
2023-08-14T07:48:07.423Z,31.68
2023-08-14T07:49:08.991Z,31.40
2023-08-14T07:50:11.494Z,29.97
2023-08-14T07:51:13.139Z,29.35
2023-08-14T07:52:14.698Z,29.31
2023-08-14T07:53:17.373Z,29.97
2023-08-14T07:54:18.970Z,29.96
2023-08-14T07:55:20.593Z,29.55
2023-08-14T07:56:22.293Z,30.10
2023-08-14T07:57:24.949Z,29.35
2023-08-14T07:58:26.534Z,30.02
2023-08-14T07:59:28.176Z,30.00
2023-08-14T08:00:29.847Z,29.87
2023-08-14T08:01:32.745Z,29.65
2023-08-14T08:02:34.436Z,29.55
2023-08-14T08:03:35.990Z,29.69
2023-08-14T08:04:40.767Z,29.72
2023-08-14T08:05:43.192Z,29.94
2023-08-14T08:06:45.024Z,29.98
2023-08-14T08:07:46.600Z,29.92
2023-08-14T08:08:48.705Z,29.64
2023-08-14T08:09:51.292Z,29.37
2023-08-14T08:10:52.898Z,29.52
2023-08-14T08:11:56.382Z,29.33
2023-08-14T08:12:58.063Z,30.44
2023-08-14T08:14:01.091Z,31.54
2023-08-14T08:15:02.962Z,30.97
2023-08-14T08:16:04.684Z,30.73
2023-08-14T08:17:06.345Z,30.02
2023-08-14T08:18:07.946Z,29.73
2023-08-14T08:19:09.494Z,29.64
2023-08-14T08:20:11.937Z,29.43
2023-08-14T08:21:13.529Z,29.70
2023-08-14T08:22:15.827Z,30.60
2023-08-14T08:23:17.548Z,31.44
2023-08-14T08:24:20.024Z,30.41
2023-08-14T08:25:21.774Z,30.01
2023-08-14T08:26:23.689Z,29.89
2023-08-14T08:27:25.424Z,30.10
2023-08-14T08:28:26.965Z,30.30
2023-08-14T08:29:28.503Z,29.56
2023-08-14T08:30:30.115Z,29.66
2023-08-14T08:31:31.864Z,30.30
2023-08-14T08:32:33.765Z,30.27
2023-08-14T08:33:35.542Z,29.88
2023-08-14T08:34:37.225Z,30.17
2023-08-14T08:35:38.792Z,29.63
2023-08-14T08:36:40.389Z,29.23
2023-08-14T08:37:42.642Z,28.65
2023-08-14T08:38:48.136Z,28.78
2023-08-14T08:39:49.723Z,28.63
2023-08-14T08:40:51.738Z,28.81
2023-08-14T08:41:54.375Z,28.63
2023-08-14T08:42:56.994Z,28.87
2023-08-14T08:44:27.643Z,28.76
2023-08-14T08:45:32.890Z,28.17
2023-08-14T08:46:37.855Z,27.94
2023-08-14T08:47:40.734Z,27.71
2023-08-14T08:48:43.482Z,27.74
2023-08-14T08:49:45.302Z,27.73
2023-08-14T08:50:47.118Z,27.95
2023-08-14T08:51:49.333Z,27.61
2023-08-14T08:52:51.785Z,27.80
2023-08-14T08:53:53.509Z,27.79
2023-08-14T08:54:56.181Z,27.79
2023-08-14T08:55:58.130Z,27.98
2023-08-14T08:57:00.663Z,28.29
2023-08-14T08:58:02.825Z,27.85
2023-08-14T08:59:04.775Z,28.25
2023-08-14T09:00:06.826Z,28.44
2023-08-14T09:01:08.484Z,28.48
2023-08-14T09:02:10.173Z,28.27
2023-08-14T09:03:13.757Z,28.45
2023-08-14T09:04:16.023Z,28.58
2023-08-14T09:05:17.604Z,28.31
2023-08-14T09:06:19.175Z,28.47
2023-08-14T09:07:20.812Z,28.60
2023-08-14T09:08:22.478Z,28.59
2023-08-14T09:09:24.379Z,28.47
2023-08-14T09:10:25.935Z,28.39
2023-08-14T09:11:28.744Z,28.52
2023-08-14T09:12:31.307Z,28.53
2023-08-14T09:13:33.254Z,29.06
2023-08-14T09:14:34.892Z,28.75
2023-08-14T09:16:39.556Z,29.11
2023-08-14T09:17:41.130Z,29.23
2023-08-14T09:18:46.479Z,29.25
2023-08-14T09:19:48.632Z,29.22
2023-08-14T09:20:50.083Z,28.97
2023-08-14T09:21:51.719Z,29.03
2023-08-14T09:22:58.396Z,28.77
2023-08-14T09:24:00.477Z,28.81
2023-08-14T09:25:02.410Z,28.55
2023-08-14T09:26:04.021Z,28.40
2023-08-14T09:27:06.010Z,28.43
2023-08-14T09:28:09.589Z,28.52
2023-08-14T09:29:14.286Z,28.47
2023-08-14T09:30:15.959Z,28.88
2023-08-14T09:31:17.600Z,28.99
2023-08-14T09:32:23.885Z,29.48
2023-08-14T09:33:25.613Z,29.24
2023-08-14T09:34:28.569Z,29.23
2023-08-14T09:35:30.213Z,29.19
2023-08-14T09:36:37.970Z,29.21
2023-08-14T09:37:41.734Z,29.04
2023-08-14T09:38:43.750Z,29.54
2023-08-14T09:39:45.869Z,29.67
2023-08-14T09:40:47.633Z,29.03
2023-08-14T09:41:52.396Z,29.39
2023-08-14T09:42:54.847Z,29.62
2023-08-14T09:44:00.746Z,29.37
2023-08-14T09:45:02.740Z,29.42
2023-08-14T09:46:04.783Z,29.07
2023-08-14T09:47:06.566Z,29.44
2023-08-14T09:48:09.329Z,29.30
2023-08-14T09:49:11.090Z,29.41
2023-08-14T09:50:16.514Z,29.55
2023-08-14T09:51:19.500Z,29.45
2023-08-14T09:52:21.423Z,29.27
2023-08-14T09:53:23.089Z,29.25
2023-08-14T09:54:36.100Z,29.28
2023-08-14T09:55:38.432Z,29.34
2023-08-14T09:56:40.020Z,29.65
2023-08-14T09:57:42.279Z,29.73
2023-08-14T09:58:44.089Z,29.88
2023-08-14T09:59:45.679Z,29.47
2023-08-14T10:00:47.775Z,29.98
2023-08-14T10:01:50.875Z,30.12
2023-08-14T10:02:52.903Z,30.06
2023-08-14T10:03:55.411Z,30.16
2023-08-14T10:04:57.545Z,30.56
2023-08-14T10:05:59.296Z,30.28
2023-08-14T10:07:01.629Z,30.31
2023-08-14T10:08:03.461Z,30.48
2023-08-14T10:09:05.964Z,29.85
2023-08-14T10:10:12.345Z,29.85
2023-08-14T10:12:26.393Z,29.19
2023-08-14T10:13:28.633Z,29.30
2023-08-14T10:14:30.180Z,29.23
2023-08-14T10:15:38.174Z,28.92
2023-08-14T10:16:41.201Z,29.00
2023-08-14T10:17:54.399Z,29.50
2023-08-14T10:18:57.847Z,29.61
2023-08-14T10:20:02.824Z,29.24
2023-08-14T10:21:05.672Z,29.44
2023-08-14T10:22:07.637Z,29.51
2023-08-14T10:23:09.651Z,29.55
2023-08-14T10:24:12.756Z,29.38
2023-08-14T10:25:15.155Z,29.34
2023-08-14T10:26:17.414Z,29.22
2023-08-14T10:27:18.928Z,29.16
2023-08-14T10:28:20.738Z,29.43
2023-08-14T10:29:22.630Z,29.57
2023-08-14T10:30:24.491Z,29.49
2023-08-14T10:31:27.994Z,29.77
2023-08-14T10:32:30.933Z,29.56
2023-08-14T10:33:33.802Z,29.50
2023-08-14T10:34:35.502Z,29.78
2023-08-14T10:35:51.136Z,29.71
2023-08-14T10:36:53.424Z,29.77
2023-08-14T10:38:04.999Z,29.99
2023-08-14T10:39:18.926Z,30.40
2023-08-14T10:40:23.326Z,30.22
2023-08-14T10:41:24.939Z,29.96
2023-08-14T10:42:26.784Z,30.58
2023-08-14T10:43:30.057Z,30.46
2023-08-14T10:44:38.940Z,31.31
2023-08-14T10:45:40.530Z,31.12
2023-08-14T10:46:43.082Z,30.76
2023-08-14T10:47:45.974Z,30.22
2023-08-14T10:48:49.812Z,30.12
2023-08-14T10:49:51.836Z,29.93
2023-08-14T10:51:02.872Z,29.75
2023-08-14T10:52:04.982Z,29.37
2023-08-14T10:53:07.166Z,29.10
2023-08-14T10:54:17.705Z,29.17
2023-08-14T10:55:35.516Z,28.97
2023-08-14T10:56:42.469Z,28.93
2023-08-14T10:57:45.860Z,29.14
2023-08-14T10:58:51.856Z,29.10
2023-08-14T10:59:58.053Z,29.54
2023-08-14T11:01:04.325Z,29.38
2023-08-14T11:02:16.773Z,29.76
2023-08-14T11:03:18.497Z,30.12
2023-08-14T11:04:20.370Z,30.78
2023-08-14T11:05:24.979Z,30.43
2023-08-14T11:06:29.555Z,29.95
2023-08-14T11:07:34.045Z,29.89
2023-08-14T11:08:37.660Z,29.72
2023-08-14T11:09:39.971Z,29.44
2023-08-14T11:10:41.585Z,29.43
2023-08-14T11:11:48.863Z,29.55
2023-08-14T11:12:50.947Z,29.11
2023-08-14T11:13:53.723Z,28.97
2023-08-14T11:14:57.835Z,28.81
2023-08-14T11:15:59.572Z,28.81
2023-08-14T11:17:01.368Z,29.01
2023-08-14T11:18:06.694Z,28.91
2023-08-14T11:19:08.360Z,28.76
2023-08-14T11:20:13.494Z,28.64
2023-08-14T11:21:30.072Z,28.63
2023-08-14T11:22:32.863Z,28.90
2023-08-14T11:23:34.599Z,28.86
2023-08-14T11:24:38.430Z,28.72
2023-08-14T11:25:40.566Z,28.81
2023-08-14T11:26:42.239Z,29.08
2023-08-14T11:27:55.618Z,28.87
2023-08-14T11:28:57.288Z,28.76
2023-08-14T11:30:02.250Z,29.10
2023-08-14T11:31:04.421Z,29.23
2023-08-14T11:32:06.350Z,29.63
2023-08-14T11:33:08.104Z,29.63
2023-08-14T11:34:09.760Z,29.67
2023-08-14T11:35:12.344Z,29.61
2023-08-14T11:36:13.985Z,29.58
2023-08-14T11:37:16.226Z,29.68
2023-08-14T11:38:21.015Z,29.84
2023-08-14T11:39:22.862Z,29.99
2023-08-14T11:40:25.332Z,29.83
2023-08-14T11:41:31.499Z,30.09
2023-08-14T11:42:34.800Z,29.99
2023-08-14T11:43:40.380Z,30.43
2023-08-14T11:44:42.552Z,30.37
2023-08-14T11:45:44.451Z,30.60
2023-08-14T11:46:47.016Z,30.85
2023-08-14T11:47:49.933Z,30.73
2023-08-14T11:48:51.724Z,30.60
2023-08-14T11:49:53.352Z,30.62
2023-08-14T11:50:54.960Z,30.42
2023-08-14T11:51:56.701Z,30.80
2023-08-14T11:52:58.507Z,30.57
2023-08-14T11:54:03.877Z,30.72
2023-08-14T11:55:05.778Z,30.49
2023-08-14T11:56:07.465Z,30.53
2023-08-14T11:57:09.501Z,30.50
2023-08-14T11:58:13.692Z,30.60
2023-08-14T11:59:16.387Z,30.35
2023-08-14T12:00:23.770Z,30.12
2023-08-14T12:01:28.864Z,29.89
2023-08-14T12:02:30.509Z,30.05
2023-08-14T12:03:32.290Z,29.74
2023-08-14T12:04:33.937Z,30.04
2023-08-14T12:05:35.609Z,30.03
2023-08-14T12:06:37.320Z,30.01
2023-08-14T12:07:42.696Z,29.95
2023-08-14T12:08:44.358Z,29.79
2023-08-14T12:09:46.051Z,29.72
2023-08-14T12:10:48.894Z,29.65
2023-08-14T12:11:51.117Z,29.36
2023-08-14T12:12:55.877Z,29.25
2023-08-14T12:13:57.880Z,29.16
2023-08-14T12:15:00.181Z,29.14
2023-08-14T12:16:11.953Z,29.31
2023-08-14T12:17:20.758Z,29.19
2023-08-14T12:18:23.918Z,29.13
2023-08-14T12:20:35.169Z,29.37
2023-08-14T12:21:37.015Z,29.37
2023-08-14T12:22:40.843Z,29.45
2023-08-14T12:23:47.748Z,29.54
2023-08-14T12:24:50.068Z,29.61
2023-08-14T12:25:55.249Z,29.33
2023-08-14T12:26:56.856Z,29.29
2023-08-14T12:27:59.728Z,29.48
2023-08-14T12:29:01.544Z,29.94
2023-08-14T12:30:03.933Z,29.99
2023-08-14T12:31:05.721Z,30.14
2023-08-14T12:32:07.362Z,30.07
2023-08-14T12:33:09.187Z,29.87
2023-08-14T12:34:10.934Z,29.85
2023-08-14T12:35:12.551Z,30.06
2023-08-14T12:36:14.154Z,30.25
2023-08-14T12:37:17.664Z,30.45
2023-08-14T12:38:19.591Z,30.46
2023-08-14T12:39:21.239Z,30.62
2023-08-14T12:40:23.450Z,30.54
2023-08-14T12:41:26.080Z,30.66
2023-08-14T12:42:27.781Z,30.74
2023-08-14T12:43:39.679Z,30.68
2023-08-14T12:44:42.576Z,30.69
2023-08-14T12:45:44.374Z,30.78
2023-08-14T12:46:46.092Z,30.83
2023-08-14T12:47:47.872Z,30.85
2023-08-14T12:48:49.656Z,30.67
2023-08-14T12:49:51.351Z,30.78
2023-08-14T12:50:52.958Z,30.64
2023-08-14T12:51:54.526Z,30.46
2023-08-14T12:52:56.101Z,30.74
2023-08-14T12:53:57.723Z,30.37
2023-08-14T12:56:04.910Z,30.42
2023-08-14T12:57:08.890Z,30.63
2023-08-14T12:58:11.860Z,30.55
2023-08-14T12:59:13.994Z,30.57
2023-08-14T13:00:16.067Z,30.74
2023-08-14T13:01:17.738Z,30.88
2023-08-14T13:02:24.667Z,30.81
2023-08-14T13:03:35.367Z,30.78
2023-08-14T13:05:41.340Z,30.60
2023-08-14T13:06:43.008Z,30.63
2023-08-14T13:07:44.665Z,30.55
2023-08-14T13:08:46.313Z,30.54
2023-08-14T13:09:47.901Z,30.89
2023-08-14T13:10:49.528Z,30.71
2023-08-14T13:11:51.100Z,30.60
2023-08-14T13:12:55.322Z,30.59
2023-08-14T13:13:57.123Z,30.57
2023-08-14T13:14:58.752Z,30.82
2023-08-14T13:16:02.342Z,30.82
2023-08-14T13:17:03.992Z,30.64
2023-08-14T13:18:05.610Z,30.57
2023-08-14T13:19:07.225Z,30.90
2023-08-14T13:20:10.862Z,30.92
2023-08-14T13:21:12.951Z,30.76
2023-08-14T13:22:16.941Z,30.94
2023-08-14T13:23:19.024Z,30.76
2023-08-14T13:24:20.766Z,30.74
2023-08-14T13:25:22.421Z,30.81
2023-08-14T13:26:26.943Z,30.66
2023-08-14T13:27:29.493Z,30.71
2023-08-14T13:28:33.346Z,30.68
2023-08-14T13:29:35.068Z,30.57
2023-08-14T13:30:36.861Z,30.62
2023-08-14T13:31:38.736Z,30.46
2023-08-14T13:32:40.740Z,30.54
2023-08-14T13:33:42.379Z,30.27
2023-08-14T13:34:44.013Z,30.51
2023-08-14T13:35:46.110Z,30.54